createdAt,value
2023-05-10T00:00:02.886Z,924.00
2023-05-10T00:01:02.818Z,947.00
2023-05-10T00:02:02.853Z,946.00
2023-05-10T00:03:02.916Z,906.00
2023-05-10T00:04:02.838Z,895.00
2023-05-10T00:05:02.918Z,870.00
2023-05-10T00:06:02.838Z,928.00
2023-05-10T00:07:02.783Z,954.00
2023-05-10T00:08:02.768Z,954.00
2023-05-10T00:09:02.743Z,980.00
2023-05-10T00:10:02.755Z,984.00
2023-05-10T00:11:02.733Z,968.00
2023-05-10T00:12:02.714Z,958.00
2023-05-10T00:13:02.759Z,921.00
2023-05-10T00:14:02.692Z,890.00
2023-05-10T00:15:02.681Z,876.00
2023-05-10T00:16:02.821Z,915.00
2023-05-10T00:17:02.698Z,917.00
2023-05-10T00:18:02.714Z,920.00
2023-05-10T00:19:02.591Z,921.00
2023-05-10T00:20:02.608Z,921.00
2023-05-10T00:21:02.528Z,940.00
2023-05-10T00:22:02.525Z,950.00
2023-05-10T00:23:02.493Z,972.00
2023-05-10T00:24:02.470Z,995.00
2023-05-10T00:25:02.481Z,994.00
2023-05-10T00:26:02.402Z,935.00
2023-05-10T00:27:02.366Z,894.00
2023-05-10T00:28:02.385Z,871.00
2023-05-10T00:29:02.360Z,888.00
2023-05-10T00:30:02.326Z,897.00
2023-05-10T00:31:02.285Z,885.00
2023-05-10T00:32:02.276Z,900.00
2023-05-10T00:33:02.300Z,885.00
2023-05-10T00:34:02.224Z,870.00
2023-05-10T00:35:02.152Z,839.00
2023-05-10T00:36:02.121Z,870.00
2023-05-10T00:37:02.084Z,874.00
2023-05-10T00:38:02.055Z,867.00
2023-05-10T00:39:02.026Z,849.00
2023-05-10T00:40:01.984Z,839.00
2023-05-10T00:41:01.962Z,839.00
2023-05-10T00:42:01.935Z,840.00
2023-05-10T00:43:01.896Z,855.00
2023-05-10T00:44:01.860Z,884.00
2023-05-10T00:45:01.816Z,924.00
2023-05-10T00:46:01.808Z,961.00
2023-05-10T00:47:01.725Z,974.00
2023-05-10T00:48:01.738Z,939.00
2023-05-10T00:49:01.656Z,884.00
2023-05-10T00:50:01.630Z,855.00
2023-05-10T00:51:01.597Z,862.00
2023-05-10T00:52:01.647Z,863.00
2023-05-10T00:53:01.528Z,862.00
2023-05-10T00:54:01.512Z,829.00
2023-05-10T00:55:01.500Z,838.00
2023-05-10T00:56:01.462Z,819.00
2023-05-10T00:57:01.393Z,811.00
2023-05-10T00:58:01.390Z,835.00
2023-05-10T00:59:02.348Z,818.00
2023-05-10T01:00:01.303Z,804.00
2023-05-10T01:01:01.324Z,791.00
2023-05-10T01:02:01.248Z,816.00
2023-05-10T01:03:01.274Z,854.00
2023-05-10T01:04:01.208Z,849.00
2023-05-10T01:05:01.219Z,837.00
2023-05-10T01:06:01.230Z,806.00
2023-05-10T01:07:01.178Z,832.00
2023-05-10T01:08:01.180Z,785.00
2023-05-10T01:09:01.191Z,772.00
2023-05-10T01:10:01.191Z,771.00
2023-05-10T01:11:01.159Z,798.00
2023-05-10T01:12:01.207Z,806.00
2023-05-10T01:13:01.215Z,796.00
2023-05-10T01:14:01.168Z,798.00
2023-05-10T01:15:01.168Z,799.00
2023-05-10T01:16:01.226Z,792.00
2023-05-10T01:17:01.156Z,787.00
2023-05-10T01:18:01.179Z,761.00
2023-05-10T01:19:01.144Z,770.00
2023-05-10T01:20:01.138Z,812.00
2023-05-10T01:21:01.128Z,798.00
2023-05-10T01:22:01.148Z,755.00
2023-05-10T01:23:01.170Z,788.00
2023-05-10T01:24:01.131Z,812.00
2023-05-10T01:25:01.121Z,816.00
2023-05-10T01:26:01.146Z,835.00
2023-05-10T01:27:01.138Z,832.00
2023-05-10T01:28:01.112Z,818.00
2023-05-10T01:29:01.123Z,795.00
2023-05-10T01:30:10.027Z,804.00
2023-05-10T01:31:02.112Z,805.00
2023-05-10T01:32:01.056Z,783.00
2023-05-10T01:33:01.065Z,792.00
2023-05-10T01:34:01.015Z,818.00
2023-05-10T01:35:00.998Z,802.00
2023-05-10T01:36:00.968Z,772.00
2023-05-10T01:37:00.935Z,772.00
2023-05-10T01:38:00.900Z,763.00
2023-05-10T01:39:00.902Z,749.00
2023-05-10T01:40:00.883Z,761.00
2023-05-10T01:41:00.828Z,824.00
2023-05-10T01:42:00.798Z,830.00
2023-05-10T01:43:00.827Z,839.00
2023-05-10T01:44:00.768Z,840.00
2023-05-10T01:45:00.731Z,842.00
2023-05-10T01:46:00.706Z,818.00
2023-05-10T01:47:00.765Z,812.00
2023-05-10T01:48:00.692Z,818.00
2023-05-10T01:49:00.626Z,833.00
2023-05-10T01:50:00.605Z,856.00
2023-05-10T01:51:00.609Z,875.00
2023-05-10T01:52:00.593Z,895.00
2023-05-10T01:53:00.584Z,897.00
2023-05-10T01:54:00.511Z,896.00
2023-05-10T01:55:00.519Z,852.00
2023-05-10T01:56:00.484Z,841.00
2023-05-10T01:57:00.448Z,851.00
2023-05-10T01:58:00.428Z,871.00
2023-05-10T01:59:00.420Z,862.00
2023-05-10T02:00:00.396Z,871.00
2023-05-10T02:01:00.366Z,903.00
2023-05-10T02:02:00.316Z,908.00
2023-05-10T02:03:00.360Z,864.00
2023-05-10T02:04:00.335Z,857.00
2023-05-10T02:05:00.253Z,821.00
2023-05-10T02:06:00.226Z,800.00
2023-05-10T02:07:00.191Z,806.00
2023-05-10T02:08:00.196Z,804.00
2023-05-10T02:09:00.177Z,843.00
2023-05-10T02:10:00.218Z,882.00
2023-05-10T02:11:00.195Z,860.00
2023-05-10T02:12:00.175Z,863.00
2023-05-10T02:13:00.281Z,847.00
2023-05-10T02:14:00.199Z,804.00
2023-05-10T02:15:00.187Z,801.00
2023-05-10T02:16:00.200Z,797.00
2023-05-10T02:17:00.333Z,797.00
2023-05-10T02:18:00.202Z,822.00
2023-05-10T02:19:00.200Z,869.00
2023-05-10T02:20:00.198Z,896.00
2023-05-10T02:21:00.199Z,878.00
2023-05-10T02:22:00.202Z,876.00
2023-05-10T02:23:00.207Z,900.00
2023-05-10T02:24:00.208Z,867.00
2023-05-10T02:25:00.225Z,886.00
2023-05-10T02:26:00.203Z,898.00
2023-05-10T02:27:00.210Z,900.00
2023-05-10T02:28:00.210Z,881.00
2023-05-10T02:29:00.234Z,884.00
2023-05-10T02:30:00.209Z,903.00
2023-05-10T02:31:00.226Z,944.00
2023-05-10T02:32:00.286Z,951.00
2023-05-10T02:33:00.266Z,938.00
2023-05-10T02:34:00.237Z,947.00
2023-05-10T02:35:00.223Z,967.00
2023-05-10T02:36:00.226Z,954.00
2023-05-10T02:37:00.229Z,938.00
2023-05-10T02:38:00.227Z,934.00
2023-05-10T02:39:00.235Z,951.00
2023-05-10T02:40:00.262Z,970.00
2023-05-10T02:41:00.229Z,997.00
2023-05-10T02:42:00.217Z,987.00
2023-05-10T02:43:00.276Z,984.00
2023-05-10T02:44:00.217Z,1001.00
2023-05-10T02:45:00.230Z,1012.00
2023-05-10T02:46:00.283Z,1001.00
2023-05-10T02:47:00.221Z,1027.00
2023-05-10T02:48:00.275Z,1018.00
2023-05-10T02:49:00.223Z,1020.00
2023-05-10T02:50:00.231Z,1035.00
2023-05-10T02:51:00.227Z,1049.00
2023-05-10T02:52:00.230Z,1066.00
2023-05-10T02:53:00.242Z,1041.00
2023-05-10T02:54:00.210Z,1032.00
2023-05-10T02:55:00.237Z,1039.00
2023-05-10T02:56:00.231Z,1021.00
2023-05-10T02:57:00.292Z,1025.00
2023-05-10T02:58:00.246Z,1002.00
2023-05-10T02:59:00.252Z,989.00
2023-05-10T03:00:00.233Z,980.00
2023-05-10T03:01:00.262Z,958.00
2023-05-10T03:02:00.267Z,961.00
2023-05-10T03:03:00.269Z,980.00
2023-05-10T03:04:00.222Z,994.00
2023-05-10T03:05:00.422Z,983.00
2023-05-10T03:06:00.226Z,971.00
2023-05-10T03:07:00.314Z,981.00
2023-05-10T03:08:00.224Z,997.00
2023-05-10T03:09:00.226Z,995.00
2023-05-10T03:10:00.210Z,1000.00
2023-05-10T03:11:00.245Z,1024.00
2023-05-10T03:12:00.203Z,1026.00
2023-05-10T03:13:00.303Z,1055.00
2023-05-10T03:14:00.209Z,1020.00
2023-05-10T03:15:00.191Z,1033.00
2023-05-10T03:16:00.216Z,1059.00
2023-05-10T03:17:00.181Z,1048.00
2023-05-10T03:18:00.232Z,1023.00
2023-05-10T03:19:00.183Z,1017.00
2023-05-10T03:20:00.230Z,1043.00
2023-05-10T03:21:00.201Z,1049.00
2023-05-10T03:22:00.236Z,1035.00
2023-05-10T03:23:00.186Z,1037.00
2023-05-10T03:24:00.288Z,1045.00
2023-05-10T03:25:00.200Z,1053.00
2023-05-10T03:26:00.181Z,1076.00
2023-05-10T03:27:00.196Z,1065.00
2023-05-10T03:28:00.219Z,1075.00
2023-05-10T03:29:00.167Z,1096.00
2023-05-10T03:30:00.257Z,1091.00
2023-05-10T03:31:00.245Z,1098.00
2023-05-10T03:32:00.163Z,1098.00
2023-05-10T03:33:00.237Z,1104.00
2023-05-10T03:34:00.213Z,1077.00
2023-05-10T03:35:00.209Z,1058.00
2023-05-10T03:36:00.191Z,1033.00
2023-05-10T03:37:00.204Z,1071.00
2023-05-10T03:38:00.194Z,1075.00
2023-05-10T03:39:00.205Z,1061.00
2023-05-10T03:40:00.218Z,1081.00
2023-05-10T03:41:00.201Z,1082.00
2023-05-10T03:42:00.201Z,1093.00
2023-05-10T03:43:00.220Z,1079.00
2023-05-10T03:44:00.211Z,1081.00
2023-05-10T03:45:00.214Z,1087.00
2023-05-10T03:46:00.242Z,1110.00
2023-05-10T03:47:00.310Z,1104.00
2023-05-10T03:48:00.310Z,1104.00
2023-05-10T03:49:00.216Z,1090.00
2023-05-10T03:50:00.392Z,1088.00
2023-05-10T03:51:00.218Z,1084.00
2023-05-10T03:52:00.226Z,1105.00
2023-05-10T03:53:00.235Z,1127.00
2023-05-10T03:54:00.224Z,1100.00
2023-05-10T03:55:00.240Z,1127.00
2023-05-10T03:56:00.235Z,1099.00
2023-05-10T03:57:00.251Z,1091.00
2023-05-10T03:58:00.232Z,1104.00
2023-05-10T03:59:00.254Z,1099.00
2023-05-10T04:00:00.277Z,1111.00
2023-05-10T04:01:00.246Z,1129.00
2023-05-10T04:02:00.345Z,1141.00
2023-05-10T04:03:00.353Z,1149.00
2023-05-10T04:04:00.308Z,1139.00
2023-05-10T04:05:00.254Z,1138.00
2023-05-10T04:06:00.315Z,1113.00
2023-05-10T04:07:00.255Z,1111.00
2023-05-10T04:08:00.222Z,1112.00
2023-05-10T04:09:00.190Z,1112.00
2023-05-10T04:10:00.158Z,1117.00
2023-05-10T04:11:00.154Z,1138.00
2023-05-10T04:12:00.140Z,1154.00
2023-05-10T04:13:00.145Z,1136.00
2023-05-10T04:14:00.082Z,1123.00
2023-05-10T04:15:00.100Z,1120.00
2023-05-10T04:16:00.024Z,1121.00
2023-05-10T04:17:00.030Z,1123.00
2023-05-10T04:18:00.021Z,1127.00
2023-05-10T04:18:59.940Z,1135.00
2023-05-10T04:19:59.933Z,1162.00
2023-05-10T04:20:59.903Z,1179.00
2023-05-10T04:21:59.877Z,1159.00
2023-05-10T04:22:59.844Z,1166.00
2023-05-10T04:23:59.803Z,1181.00
2023-05-10T04:24:59.784Z,1181.00
2023-05-10T04:25:59.767Z,1183.00
2023-05-10T04:26:59.744Z,1159.00
2023-05-10T04:27:59.707Z,1172.00
2023-05-10T04:28:59.680Z,1189.00
2023-05-10T04:29:59.657Z,1161.00
2023-05-10T04:30:59.675Z,1171.00
2023-05-10T04:31:59.603Z,1181.00
2023-05-10T04:32:59.594Z,1196.00
2023-05-10T04:33:59.552Z,1202.00
2023-05-10T04:34:59.516Z,1195.00
2023-05-10T04:35:59.519Z,1196.00
2023-05-10T04:36:59.511Z,1190.00
2023-05-10T04:37:59.514Z,1194.00
2023-05-10T04:38:59.525Z,1209.00
2023-05-10T04:39:59.534Z,1194.00
2023-05-10T04:40:59.555Z,1201.00
2023-05-10T04:41:59.496Z,1202.00
2023-05-10T04:42:59.496Z,1208.00
2023-05-10T04:43:59.464Z,1217.00
2023-05-10T04:44:59.426Z,1216.00
2023-05-10T04:45:59.418Z,1221.00
2023-05-10T04:46:59.365Z,1213.00
2023-05-10T04:47:59.411Z,1233.00
2023-05-10T04:48:59.302Z,1232.00
2023-05-10T04:49:59.299Z,1214.00
2023-05-10T04:50:59.268Z,1219.00
2023-05-10T04:51:59.234Z,1216.00
2023-05-10T04:52:59.204Z,1211.00
2023-05-10T04:54:06.036Z,1232.00
2023-05-10T04:55:00.200Z,1232.00
2023-05-10T04:55:59.155Z,1233.00
2023-05-10T04:56:59.118Z,1228.00
2023-05-10T04:57:59.077Z,1229.00
2023-05-10T04:58:59.085Z,1242.00
2023-05-10T04:59:59.042Z,1262.00
2023-05-10T05:00:59.013Z,1244.00
2023-05-10T05:01:59.014Z,1228.00
2023-05-10T05:02:59.087Z,1245.00
2023-05-10T05:03:59.120Z,1226.00
2023-05-10T05:04:58.977Z,1232.00
2023-05-10T05:05:58.882Z,1247.00
2023-05-10T05:06:58.869Z,1249.00
2023-05-10T05:07:58.849Z,1265.00
2023-05-10T05:08:58.836Z,1243.00
2023-05-10T05:09:58.825Z,1247.00
2023-05-10T05:10:58.799Z,1224.00
2023-05-10T05:11:58.753Z,1222.00
2023-05-10T05:12:58.747Z,1234.00
2023-05-10T05:13:58.791Z,1234.00
2023-05-10T05:14:58.742Z,1222.00
2023-05-10T05:15:58.773Z,1237.00
2023-05-10T05:16:58.775Z,1231.00
2023-05-10T05:17:58.834Z,1213.00
2023-05-10T05:18:58.802Z,1223.00
2023-05-10T05:19:58.815Z,1233.00
2023-05-10T05:20:58.811Z,1230.00
2023-05-10T05:21:58.824Z,1231.00
2023-05-10T05:22:58.928Z,1240.00
2023-05-10T05:23:58.827Z,1235.00
2023-05-10T05:24:58.851Z,1230.00
2023-05-10T05:25:58.893Z,1233.00
2023-05-10T05:26:58.855Z,1240.00
2023-05-10T05:27:58.927Z,1247.00
2023-05-10T05:28:59.447Z,1245.00
2023-05-10T05:29:58.932Z,1254.00
2023-05-10T05:30:58.970Z,1285.00
2023-05-10T05:31:59.001Z,1313.00
2023-05-10T05:32:58.962Z,1348.00
2023-05-10T05:33:58.944Z,1389.00
2023-05-10T05:34:59.073Z,1470.00
2023-05-10T05:35:58.940Z,1609.00
2023-05-10T05:36:58.939Z,1710.00
2023-05-10T05:37:58.997Z,1807.00
2023-05-10T05:38:58.920Z,1869.00
2023-05-10T05:39:58.917Z,1912.00
2023-05-10T05:40:58.946Z,1967.00
2023-05-10T05:41:58.901Z,2012.00
2023-05-10T05:42:58.883Z,2085.00
2023-05-10T05:43:58.917Z,2130.00
2023-05-10T05:44:58.856Z,2156.00
2023-05-10T05:45:59.095Z,2166.00
2023-05-10T05:46:58.998Z,2199.00
2023-05-10T05:47:59.446Z,2227.00
2023-05-10T05:48:58.795Z,2232.00
2023-05-10T05:49:58.749Z,2278.00
2023-05-10T05:50:58.741Z,2291.00
2023-05-10T05:51:58.690Z,2277.00
2023-05-10T05:52:58.644Z,2259.00
2023-05-10T05:53:58.630Z,2271.00
2023-05-10T05:54:58.598Z,2275.00
2023-05-10T05:55:58.563Z,2282.00
2023-05-10T05:56:59.819Z,2318.00
2023-05-10T05:57:58.732Z,2334.00
2023-05-10T05:58:58.604Z,2351.00
2023-05-10T05:59:58.588Z,2417.00
2023-05-10T06:00:58.544Z,2464.00
2023-05-10T06:01:58.672Z,2502.00
2023-05-10T06:02:58.630Z,2566.00
2023-05-10T06:03:58.560Z,2569.00
2023-05-10T06:04:58.478Z,2584.00
2023-05-10T06:05:58.377Z,2627.00
2023-05-10T06:06:58.369Z,2698.00
2023-05-10T06:07:58.312Z,2801.00
2023-05-10T06:08:58.285Z,2836.00
2023-05-10T06:09:58.225Z,2857.00
2023-05-10T06:10:58.191Z,2884.00
2023-05-10T06:11:58.206Z,2909.00
2023-05-10T06:12:58.253Z,2946.00
2023-05-10T06:13:58.259Z,2966.00
2023-05-10T06:14:58.294Z,2994.00
2023-05-10T06:15:58.294Z,3029.00
2023-05-10T06:16:58.420Z,3062.00
2023-05-10T06:17:58.419Z,3098.00
2023-05-10T06:18:58.527Z,3138.00
2023-05-10T06:19:58.395Z,3168.00
2023-05-10T06:20:58.416Z,3170.00
2023-05-10T06:21:58.400Z,3172.00
2023-05-10T06:22:58.341Z,3174.00
2023-05-10T06:23:58.354Z,3159.00
2023-05-10T06:24:58.306Z,3175.00
2023-05-10T06:25:58.362Z,3160.00
2023-05-10T06:26:58.228Z,3127.00
2023-05-10T06:27:58.530Z,3117.00
2023-05-10T06:28:58.131Z,3073.00
2023-05-10T06:30:09.275Z,3069.00
2023-05-10T06:30:58.047Z,3071.00
2023-05-10T06:31:58.201Z,3072.00
2023-05-10T06:32:58.123Z,3062.00
2023-05-10T06:33:57.918Z,3080.00
2023-05-10T06:34:57.884Z,3162.00
2023-05-10T06:35:57.812Z,3208.00
2023-05-10T06:36:57.777Z,3204.00
2023-05-10T06:37:57.719Z,3179.00
2023-05-10T06:38:57.728Z,3194.00
2023-05-10T06:39:57.710Z,3237.00
2023-05-10T06:40:57.619Z,3253.00
2023-05-10T06:41:57.820Z,3292.00
2023-05-10T06:42:57.795Z,3297.00
2023-05-10T06:43:57.619Z,3334.00
2023-05-10T06:44:57.621Z,3375.00
2023-05-10T06:45:57.673Z,3367.00
2023-05-10T06:46:57.641Z,3302.00
2023-05-10T06:47:57.658Z,3264.00
2023-05-10T06:48:57.598Z,3242.00
2023-05-10T06:49:57.639Z,3219.00
2023-05-10T06:50:57.605Z,3176.00
2023-05-10T06:51:57.709Z,3156.00
2023-05-10T06:52:57.647Z,3120.00
2023-05-10T06:53:57.636Z,3140.00
2023-05-10T06:54:57.730Z,3102.00
2023-05-10T06:55:57.667Z,3125.00
2023-05-10T06:56:57.661Z,3133.00
2023-05-10T06:57:57.675Z,3140.00
2023-05-10T06:58:57.706Z,3140.00
2023-05-10T06:59:57.758Z,3130.00
2023-05-10T07:00:57.762Z,3127.00
2023-05-10T07:01:57.728Z,3107.00
2023-05-10T07:02:57.768Z,3085.00
2023-05-10T07:03:57.722Z,3058.00
2023-05-10T07:04:59.504Z,3093.00
2023-05-10T07:05:57.729Z,3073.00
2023-05-10T07:06:57.708Z,3071.00
2023-05-10T07:07:57.612Z,3060.00
2023-05-10T07:08:57.559Z,3056.00
2023-05-10T07:09:57.538Z,3019.00
2023-05-10T07:10:57.493Z,2989.00
2023-05-10T07:11:57.461Z,2991.00
2023-05-10T07:12:57.469Z,2995.00
2023-05-10T07:13:57.366Z,2998.00
2023-05-10T07:14:57.460Z,3004.00
2023-05-10T07:15:57.474Z,3001.00
2023-05-10T07:16:57.275Z,3004.00
2023-05-10T07:17:57.338Z,2985.00
2023-05-10T07:18:57.198Z,2981.00
2023-05-10T07:19:57.529Z,2983.00
2023-05-10T07:20:58.013Z,2963.00
2023-05-10T07:21:57.215Z,2958.00
2023-05-10T07:22:57.208Z,2917.00
2023-05-10T07:23:57.662Z,2903.00
2023-05-10T07:24:57.221Z,2853.00
2023-05-10T07:25:57.846Z,2813.00
2023-05-10T07:26:57.380Z,2790.00
2023-05-10T07:27:57.343Z,2721.00
2023-05-10T07:28:57.342Z,2671.00
2023-05-10T07:29:57.282Z,2627.00
2023-05-10T07:30:57.262Z,2580.00
2023-05-10T07:31:58.838Z,2559.00
2023-05-10T07:32:57.342Z,2512.00
2023-05-10T07:33:57.371Z,2461.00
2023-05-10T07:34:57.497Z,2471.00
2023-05-10T07:35:57.404Z,2492.00
2023-05-10T07:36:57.440Z,2569.00
2023-05-10T07:37:57.399Z,2620.00
2023-05-10T07:38:57.301Z,2652.00
2023-05-10T07:39:57.335Z,2672.00
2023-05-10T07:40:57.426Z,2620.00
2023-05-10T07:41:57.342Z,2187.00
2023-05-10T07:42:57.359Z,1656.00
2023-05-10T07:43:57.410Z,1392.00
2023-05-10T07:44:57.413Z,1277.00
2023-05-10T07:45:57.554Z,1250.00
2023-05-10T07:46:57.467Z,1242.00
2023-05-10T07:47:57.503Z,1311.00
2023-05-10T07:48:57.585Z,1285.00
2023-05-10T07:49:57.523Z,1099.00
2023-05-10T07:50:57.530Z,1185.00
2023-05-10T07:51:57.588Z,1229.00
2023-05-10T07:52:57.625Z,1311.00
2023-05-10T07:53:57.632Z,1303.00
2023-05-10T07:54:57.657Z,1339.00
2023-05-10T07:55:57.675Z,1393.00
2023-05-10T07:56:57.743Z,1447.00
2023-05-10T07:57:57.643Z,1448.00
2023-05-10T07:58:57.614Z,1455.00
2023-05-10T07:59:57.570Z,1469.00
2023-05-10T08:00:57.600Z,1519.00
2023-05-10T08:01:57.543Z,1600.00
2023-05-10T08:02:57.507Z,1668.00
2023-05-10T08:03:57.468Z,1646.00
2023-05-10T08:04:57.441Z,1638.00
2023-05-10T08:05:57.338Z,1545.00
2023-05-10T08:06:57.336Z,1456.00
2023-05-10T08:07:57.241Z,1449.00
2023-05-10T08:08:57.215Z,1289.00
2023-05-10T08:09:57.194Z,1154.00
2023-05-10T08:10:57.145Z,998.00
2023-05-10T08:11:57.091Z,805.00
2023-05-10T08:12:57.087Z,773.00
2023-05-10T08:13:57.254Z,884.00
2023-05-10T08:14:57.128Z,1022.00
2023-05-10T08:15:57.212Z,1144.00
2023-05-10T08:16:57.258Z,1294.00
2023-05-10T08:17:57.289Z,1407.00
2023-05-10T08:18:57.285Z,1483.00
2023-05-10T08:19:57.268Z,1477.00
2023-05-10T08:20:57.278Z,1560.00
2023-05-10T08:21:57.304Z,1591.00
2023-05-10T08:22:57.304Z,1632.00
2023-05-10T08:23:57.340Z,1608.00
2023-05-10T08:24:57.431Z,1583.00
2023-05-10T08:25:57.379Z,1570.00
2023-05-10T08:26:57.377Z,1486.00
2023-05-10T08:27:57.410Z,1528.00
2023-05-10T08:28:57.444Z,1422.00
2023-05-10T08:29:57.517Z,1345.00
2023-05-10T08:30:57.570Z,1263.00
2023-05-10T08:31:57.517Z,1312.00
2023-05-10T08:32:57.619Z,1416.00
2023-05-10T08:33:57.634Z,1615.00
2023-05-10T08:34:57.606Z,1616.00
2023-05-10T08:35:57.620Z,1578.00
2023-05-10T08:36:57.631Z,1562.00
2023-05-10T08:37:57.666Z,1526.00
2023-05-10T08:38:57.680Z,1395.00
2023-05-10T08:39:57.735Z,1292.00
2023-05-10T08:40:57.762Z,1201.00
2023-05-10T08:41:57.721Z,1382.00
2023-05-10T08:42:57.694Z,1361.00
2023-05-10T08:43:57.720Z,1104.00
2023-05-10T08:44:57.681Z,1055.00
2023-05-10T08:45:57.645Z,927.00
2023-05-10T08:46:57.742Z,1123.00
2023-05-10T08:47:57.662Z,1283.00
2023-05-10T08:48:57.621Z,1458.00
2023-05-10T08:49:57.723Z,1523.00
2023-05-10T08:50:57.594Z,1546.00
2023-05-10T08:51:57.590Z,1469.00
2023-05-10T08:52:57.572Z,1342.00
2023-05-10T08:53:58.579Z,1233.00
2023-05-10T08:54:57.559Z,1119.00
2023-05-10T08:55:57.570Z,1061.00
2023-05-10T08:56:57.684Z,977.00
2023-05-10T08:57:57.616Z,957.00
2023-05-10T08:58:57.601Z,962.00
2023-05-10T08:59:57.605Z,1155.00
2023-05-10T09:00:57.632Z,1270.00
2023-05-10T09:01:57.617Z,1316.00
2023-05-10T09:02:57.632Z,1425.00
2023-05-10T09:03:57.662Z,1471.00
2023-05-10T09:04:57.779Z,1468.00
2023-05-10T09:05:57.618Z,1526.00
2023-05-10T09:06:57.586Z,1572.00
2023-05-10T09:07:57.550Z,1598.00
2023-05-10T09:08:57.554Z,1607.00
2023-05-10T09:09:57.608Z,1588.00
2023-05-10T09:10:57.560Z,1564.00
2023-05-10T09:11:57.479Z,1529.00
2023-05-10T09:12:59.247Z,1554.00
2023-05-10T09:13:57.454Z,1564.00
2023-05-10T09:14:57.436Z,1548.00
2023-05-10T09:15:58.841Z,1557.00
2023-05-10T09:16:57.427Z,1534.00
2023-05-10T09:17:57.409Z,1460.00
2023-05-10T09:18:57.393Z,1481.00
2023-05-10T09:19:57.292Z,1419.00
2023-05-10T09:20:57.234Z,1493.00
2023-05-10T09:21:57.197Z,1479.00
2023-05-10T09:22:57.167Z,1418.00
2023-05-10T09:23:57.137Z,1438.00
2023-05-10T09:24:57.115Z,1423.00
2023-05-10T09:25:57.089Z,1410.00
2023-05-10T09:26:57.036Z,1436.00
2023-05-10T09:27:57.003Z,1374.00
2023-05-10T09:28:56.996Z,1193.00
2023-05-10T09:29:56.936Z,1215.00
2023-05-10T09:30:57.174Z,1324.00
2023-05-10T09:31:56.877Z,1271.00
2023-05-10T09:32:56.916Z,1341.00
2023-05-10T09:33:56.813Z,1362.00
2023-05-10T09:34:56.809Z,1323.00
2023-05-10T09:35:56.770Z,1203.00
2023-05-10T09:36:56.757Z,1148.00
2023-05-10T09:37:56.721Z,1262.00
2023-05-10T09:38:56.679Z,1231.00
2023-05-10T09:39:56.656Z,1273.00
2023-05-10T09:40:56.624Z,1365.00
2023-05-10T09:41:56.594Z,1309.00
2023-05-10T09:42:56.556Z,1386.00
2023-05-10T09:43:56.529Z,1454.00
2023-05-10T09:44:56.497Z,1524.00
2023-05-10T09:45:56.969Z,1596.00
2023-05-10T09:46:56.491Z,1621.00
2023-05-10T09:47:56.515Z,1333.00
2023-05-10T09:48:56.429Z,1038.00
2023-05-10T09:49:56.336Z,865.00
2023-05-10T09:50:56.428Z,776.00
2023-05-10T09:51:56.331Z,664.00
2023-05-10T09:52:56.371Z,647.00
2023-05-10T09:53:56.266Z,573.00
2023-05-10T09:54:56.213Z,485.00
2023-05-10T09:55:56.199Z,427.00
2023-05-10T09:56:56.176Z,400.00
2023-05-10T09:57:56.146Z,414.00
2023-05-10T09:58:56.105Z,460.00
2023-05-10T09:59:56.072Z,467.00
2023-05-10T10:00:56.050Z,482.00
2023-05-10T10:01:56.142Z,484.00
2023-05-10T10:02:56.038Z,500.00
2023-05-10T10:03:55.947Z,499.00
2023-05-10T10:04:56.021Z,500.00
2023-05-10T10:05:55.931Z,505.00
2023-05-10T10:06:55.888Z,501.00
2023-05-10T10:07:55.921Z,531.00
2023-05-10T10:08:56.817Z,527.00
2023-05-10T10:09:55.807Z,501.00
2023-05-10T10:10:55.744Z,506.00
2023-05-10T10:11:55.747Z,512.00
2023-05-10T10:12:55.885Z,517.00
2023-05-10T10:13:55.787Z,534.00
2023-05-10T10:14:55.799Z,541.00
2023-05-10T10:15:55.818Z,580.00
2023-05-10T10:17:06.407Z,861.00
2023-05-10T10:17:56.894Z,877.00
2023-05-10T10:18:55.801Z,986.00
2023-05-10T10:19:55.763Z,1214.00
2023-05-10T10:20:59.596Z,1476.00
2023-05-10T10:21:55.684Z,891.00
2023-05-10T10:22:55.653Z,972.00
2023-05-10T10:23:55.600Z,1115.00
2023-05-10T10:24:55.566Z,1231.00
2023-05-10T10:25:55.547Z,1389.00
2023-05-10T10:26:55.506Z,1280.00
2023-05-10T10:27:55.474Z,1153.00
2023-05-10T10:28:55.439Z,1170.00
2023-05-10T10:29:55.409Z,1146.00
2023-05-10T10:30:55.602Z,1173.00
2023-05-10T10:31:55.377Z,1233.00
2023-05-10T10:32:55.364Z,1330.00
2023-05-10T10:33:55.376Z,1415.00
2023-05-10T10:34:55.268Z,1596.00
2023-05-10T10:35:55.425Z,1682.00
2023-05-10T10:36:55.526Z,1692.00
2023-05-10T10:37:55.377Z,1672.00
2023-05-10T10:38:55.440Z,1779.00
2023-05-10T10:39:55.114Z,1918.00
2023-05-10T10:40:55.087Z,2154.00
2023-05-10T10:41:55.055Z,2360.00
2023-05-10T10:42:55.024Z,2473.00
2023-05-10T10:43:54.990Z,2516.00
2023-05-10T10:44:54.964Z,2524.00
2023-05-10T10:45:54.920Z,2496.00
2023-05-10T10:46:54.948Z,2476.00
2023-05-10T10:47:54.972Z,2413.00
2023-05-10T10:48:54.835Z,2397.00
2023-05-10T10:49:54.849Z,2364.00
2023-05-10T10:50:55.133Z,2331.00
2023-05-10T10:51:54.744Z,2276.00
2023-05-10T10:52:55.626Z,2202.00
2023-05-10T10:53:54.638Z,2106.00
2023-05-10T10:54:54.606Z,2103.00
2023-05-10T10:55:54.588Z,2103.00
2023-05-10T10:56:54.544Z,2090.00
2023-05-10T10:57:54.475Z,2050.00
2023-05-10T10:58:54.484Z,2019.00
2023-05-10T10:59:54.414Z,2041.00
2023-05-10T11:00:54.637Z,2028.00
2023-05-10T11:01:54.396Z,1987.00
2023-05-10T11:02:54.366Z,1976.00
2023-05-10T11:03:54.286Z,1944.00
2023-05-10T11:04:54.248Z,1926.00
2023-05-10T11:05:54.282Z,1912.00
2023-05-10T11:06:54.240Z,1899.00
2023-05-10T11:07:54.207Z,1857.00
2023-05-10T11:08:54.151Z,1808.00
2023-05-10T11:09:54.167Z,1778.00
2023-05-10T11:10:54.151Z,1761.00
2023-05-10T11:11:54.310Z,1723.00
2023-05-10T11:12:54.024Z,1736.00
2023-05-10T11:13:53.985Z,1571.00
2023-05-10T11:14:54.008Z,1487.00
2023-05-10T11:15:53.952Z,1411.00
2023-05-10T11:16:53.970Z,1472.00
2023-05-10T11:17:53.992Z,1422.00
2023-05-10T11:18:54.047Z,1426.00
2023-05-10T11:19:53.935Z,1438.00
2023-05-10T11:20:53.975Z,1426.00
2023-05-10T11:21:53.942Z,1371.00
2023-05-10T11:22:53.972Z,1177.00
2023-05-10T11:23:53.968Z,1201.00
2023-05-10T11:24:53.980Z,1214.00
2023-05-10T11:25:54.009Z,1253.00
2023-05-10T11:26:54.011Z,1359.00
2023-05-10T11:27:54.272Z,1518.00
2023-05-10T11:28:54.063Z,1954.00
2023-05-10T11:29:54.117Z,2096.00
2023-05-10T11:30:54.261Z,2218.00
2023-05-10T11:31:54.182Z,2637.00
2023-05-10T11:32:54.223Z,2675.00
2023-05-10T11:33:54.197Z,2620.00
2023-05-10T11:34:54.223Z,2681.00
2023-05-10T11:35:54.300Z,2670.00
2023-05-10T11:36:54.234Z,2589.00
2023-05-10T11:37:54.226Z,2665.00
2023-05-10T11:38:54.286Z,2742.00
2023-05-10T11:39:54.313Z,2748.00
2023-05-10T11:40:54.382Z,2742.00
2023-05-10T11:41:54.339Z,2743.00
2023-05-10T11:42:54.374Z,2755.00
2023-05-10T11:43:54.374Z,2761.00
2023-05-10T11:44:54.411Z,2731.00
2023-05-10T11:45:54.522Z,2740.00
2023-05-10T11:46:54.447Z,2719.00
2023-05-10T11:47:54.581Z,2707.00
2023-05-10T11:48:54.495Z,2704.00
2023-05-10T11:49:54.388Z,2685.00
2023-05-10T11:50:54.398Z,2677.00
2023-05-10T11:51:54.368Z,2655.00
2023-05-10T11:52:54.471Z,2626.00
2023-05-10T11:53:54.530Z,2602.00
2023-05-10T11:54:54.295Z,2605.00
2023-05-10T11:55:54.310Z,2589.00
2023-05-10T11:56:54.454Z,2574.00
2023-05-10T11:57:54.264Z,2562.00
2023-05-10T11:58:54.268Z,2553.00
2023-05-10T11:59:54.290Z,2478.00
2023-05-10T12:00:54.250Z,2493.00
2023-05-10T12:01:54.226Z,2493.00
2023-05-10T12:02:54.204Z,2495.00
2023-05-10T12:03:54.485Z,2468.00
2023-05-10T12:04:54.135Z,2452.00
2023-05-10T12:05:54.086Z,2442.00
2023-05-10T12:06:54.126Z,2398.00
2023-05-10T12:07:54.045Z,2354.00
2023-05-10T12:08:54.049Z,2366.00
2023-05-10T12:09:53.966Z,2364.00
2023-05-10T12:10:53.976Z,2369.00
2023-05-10T12:11:53.945Z,2325.00